Terminal Aerodrome Forecast
Issued by NWS

Home | Current Version | Previous Version | Text Only | Print | Product List | Glossary On
Versions: 1 2 3 4 5 6 7 8 9 10 11 12 13 14 15 16
000
FTUS43 KDLH 141736
TAFHIB
TAF
KHIB 141736Z 1418/1518 12008G16KT P6SM BKN200
     FM142100 09005KT P6SM VCSH OVC110
     FM150200 02006KT P6SM -SHRA OVC030
     FM150800 34007KT P6SM BKN040
     FM151700 28006KT P6SM SCT250=

USA.gov is the U.S. government's official web portal to all federal, state and local government web resources and services.